Time;durP1;ratioP1;P1;durP2;ratioP2;P2;SDS_P1;SDS_P2;PMS_P1;PMS_P2;Temp;Humidity;BMP_temperature;BMP_pressure;BME280_temperature;BME280_humidity;BME280_pressure;Samples;Min_cycle;Max_cycle;Signal;HPM_P1;HPM_P2
2023/07/18 00:01:32;;;;;;;5.20;1.50;;;;;;;-144.47;78.13;52562.16;5038766;28;20037;-66
2023/07/18 00:03:57;;;;;;;9.88;1.60;;;;;;;-144.47;78.45;52550.25;5032197;28;20060;-66
2023/07/18 00:06:24;;;;;;;4.50;1.38;;;;;;;-144.47;78.27;52558.19;5036690;28;20398;-65
2023/07/18 00:08:50;;;;;;;4.68;1.50;;;;;;;-144.47;78.29;52566.13;5036001;28;20036;-66
2023/07/18 00:11:16;;;;;;;3.58;1.35;;;;;;;-144.47;78.53;52578.03;5031390;28;20045;-68
2023/07/18 00:13:42;;;;;;;1.60;1.00;;;;;;;-144.47;78.83;52548.25;5040584;28;20100;-65
2023/07/18 00:16:08;;;;;;;3.63;1.30;;;;;;;-144.47;78.98;52524.41;5038683;28;20405;-65
2023/07/18 00:18:34;;;;;;;3.83;1.30;;;;;;;-144.47;79.16;52552.22;5034399;28;20017;-67
2023/07/18 00:20:59;;;;;;;2.65;1.25;;;;;;;-144.47;79.19;52546.25;5037283;28;20037;-67
2023/07/18 00:23:25;;;;;;;3.50;1.70;;;;;;;-144.47;79.26;52591.94;5040914;28;20037;-67
2023/07/18 00:25:50;;;;;;;7.53;1.67;;;;;;;-144.47;79.64;52570.09;5038365;28;20025;-66
2023/07/18 00:28:16;;;;;;;5.85;1.70;;;;;;;-144.47;78.87;52562.16;5033763;28;20029;-67
2023/07/18 00:30:41;;;;;;;4.10;1.60;;;;;;;-144.47;78.60;52570.09;5037791;28;20510;-65
2023/07/18 00:33:07;;;;;;;3.08;1.30;;;;;;;-144.47;78.39;52589.97;5026952;28;20488;-68
2023/07/18 00:35:32;;;;;;;7.15;1.60;;;;;;;-144.47;78.96;52576.06;5042533;28;20024;-64
2023/07/18 00:37:58;;;;;;;3.20;1.30;;;;;;;-144.47;78.57;52580.03;5033223;28;20052;-66
2023/07/18 00:40:24;;;;;;;3.83;1.30;;;;;;;-144.47;79.01;52597.91;5042833;28;20483;-66
2023/07/18 00:42:50;;;;;;;3.67;1.50;;;;;;;-144.47;79.05;52574.06;5033613;28;20029;-65
2023/07/18 00:45:15;;;;;;;4.32;2.08;;;;;;;-144.47;78.78;52556.19;5029496;28;20083;-68
2023/07/18 00:47:43;;;;;;;2.70;1.42;;;;;;;-144.47;78.99;52558.19;5030957;28;20037;-66
2023/07/18 00:50:20;;;;;;;3.50;1.47;;;;;;;-144.47;79.10;52578.03;5030926;28;20021;-67
2023/07/18 00:52:51;;;;;;;4.18;1.85;;;;;;;-144.47;79.26;52582.00;5030707;28;20056;-65
2023/07/18 00:55:16;;;;;;;7.68;1.50;;;;;;;-144.47;79.36;52570.09;5030488;28;20109;-66
2023/07/18 00:57:44;;;;;;;7.68;1.92;;;;;;;-144.47;79.72;52564.13;5030908;28;20398;-66
2023/07/18 01:00:11;;;;;;;3.85;1.45;;;;;;;-144.47;79.69;52564.13;5029880;28;20407;-67
2023/07/18 01:02:38;;;;;;;2.35;1.25;;;;;;;-144.47;78.93;52591.94;5030443;28;20033;-65
2023/07/18 01:05:06;;;;;;;4.38;1.58;;;;;;;-144.47;78.74;52538.31;5028893;28;20025;-66
2023/07/18 01:07:32;;;;;;;9.45;1.77;;;;;;;-144.47;78.71;52570.09;5027824;28;20100;-67
2023/07/18 01:10:13;;;;;;;5.45;1.35;;;;;;;-144.47;78.91;52566.13;5029805;28;20037;-67
2023/07/18 01:12:39;;;;;;;4.22;1.40;;;;;;;-144.47;79.26;52582.00;5031542;28;20087;-67
2023/07/18 01:15:04;;;;;;;3.63;1.63;;;;;;;-144.47;79.31;52554.22;5029057;28;20030;-66
2023/07/18 01:17:31;;;;;;;6.47;1.80;;;;;;;-144.47;79.40;52566.13;5030585;28;20029;-65
2023/07/18 01:19:57;;;;;;;4.53;1.65;;;;;;;-144.47;79.06;52580.03;5029867;28;20129;-65
2023/07/18 01:22:22;;;;;;;2.78;1.23;;;;;;;-144.47;79.18;52580.03;5030113;28;20060;-66
2023/07/18 01:24:48;;;;;;;4.43;1.52;;;;;;;-144.47;80.20;52574.06;5029581;28;20049;-66
2023/07/18 01:27:13;;;;;;;4.45;1.50;;;;;;;-144.47;80.23;52576.06;5030519;28;20033;-68
2023/07/18 01:29:39;;;;;;;3.55;1.85;;;;;;;-144.47;80.21;52584.00;5029469;28;20068;-67
2023/07/18 01:32:04;;;;;;;3.67;1.63;;;;;;;-144.47;79.93;52560.16;5024950;28;20029;-66
2023/07/18 01:34:30;;;;;;;4.70;1.85;;;;;;;-144.47;79.88;52568.13;5029461;28;20103;-66
2023/07/18 01:36:55;;;;;;;7.40;1.80;;;;;;;-144.47;80.19;52572.09;5039508;28;20512;-64
2023/07/18 01:39:20;;;;;;;5.68;1.83;;;;;;;-144.47;80.47;52568.13;5044942;28;20024;-66
2023/07/18 01:41:47;;;;;;;3.65;1.55;;;;;;;-144.47;80.58;52572.09;5039575;28;20040;-63
2023/07/18 01:44:13;;;;;;;3.30;1.50;;;;;;;-144.47;80.62;52597.91;5035795;28;20028;-65
2023/07/18 01:46:38;;;;;;;5.32;1.90;;;;;;;-144.47;80.11;52582.00;5040216;28;20022;-66
2023/07/18 01:49:03;;;;;;;5.43;1.65;;;;;;;-144.47;80.00;52578.03;5043382;28;20025;-66
2023/07/18 01:51:29;;;;;;;4.55;1.73;;;;;;;-144.47;79.98;52572.09;5030065;28;20101;-67
2023/07/18 01:53:54;;;;;;;5.07;1.73;;;;;;;-144.47;79.95;52585.97;5029536;28;20108;-67
2023/07/18 01:56:19;;;;;;;12.52;1.75;;;;;;;-144.47;80.26;52570.09;5030915;28;20029;-63
2023/07/18 01:58:45;;;;;;;14.85;1.80;;;;;;;-144.47;80.59;52568.13;5030107;28;20452;-64
2023/07/18 02:01:10;;;;;;;7.30;1.83;;;;;;;-144.47;80.50;52576.06;5030819;28;20057;-66
2023/07/18 02:03:36;;;;;;;5.80;1.70;;;;;;;-144.47;80.51;52560.16;5029499;28;20115;-64
2023/07/18 02:06:01;;;;;;;6.28;1.77;;;;;;;-144.47;80.38;52570.09;5049897;28;20029;-66
2023/07/18 02:08:27;;;;;;;3.78;1.75;;;;;;;-144.47;80.60;52580.03;5037907;28;20514;-67
2023/07/18 02:10:52;;;;;;;9.35;1.77;;;;;;;-144.47;80.68;52597.91;5029939;28;20025;-65
2023/07/18 02:13:17;;;;;;;3.78;1.75;;;;;;;-144.47;80.76;52562.16;5029294;28;20079;-66
2023/07/18 02:15:43;;;;;;;5.22;1.92;;;;;;;-144.47;80.87;52566.13;5029604;28;20107;-66
2023/07/18 02:18:08;;;;;;;3.92;1.77;;;;;;;-144.47;80.77;52585.97;5029080;28;20240;-64
2023/07/18 02:20:33;;;;;;;5.65;2.03;;;;;;;-144.47;80.71;52599.88;5027468;28;20021;-66
2023/07/18 02:23:00;;;;;;;4.18;1.73;;;;;;;-144.47;80.92;52566.13;5029294;28;20438;-67
2023/07/18 02:25:26;;;;;;;10.23;2.03;;;;;;;-144.47;80.73;52566.13;5028406;28;20037;-65
2023/07/18 02:27:52;;;;;;;10.63;2.00;;;;;;;-144.47;80.79;52578.03;5029030;28;20032;-67
2023/07/18 02:30:17;;;;;;;8.13;2.13;;;;;;;-144.47;80.71;52544.28;5028273;28;20025;-65
2023/07/18 02:32:44;;;;;;;7.47;1.85;;;;;;;-144.47;81.04;52587.97;5040625;28;20018;-67
2023/07/18 02:35:15;;;;;;;5.03;1.80;;;;;;;-144.47;81.13;52589.97;5040931;28;20602;-66
2023/07/18 02:37:40;;;;;;;4.55;2.22;;;;;;;-144.47;81.16;52572.09;5034518;28;20029;-65
2023/07/18 02:40:08;;;;;;;4.75;1.98;;;;;;;-144.47;81.25;52605.84;5040847;28;20095;-62
2023/07/18 02:42:34;;;;;;;3.63;1.50;;;;;;;-144.47;80.48;52593.94;5042197;28;20024;-66
2023/07/18 02:45:00;;;;;;;15.88;2.85;;;;;;;-144.47;79.85;52593.94;5036382;28;20457;-65
2023/07/18 02:47:25;;;;;;;5.00;1.83;;;;;;;-144.47;79.85;52568.13;5035381;28;20349;-65
2023/07/18 02:49:51;;;;;;;4.03;2.10;;;;;;;-144.47;80.13;52570.09;5040316;28;20091;-66
2023/07/18 02:52:16;;;;;;;4.15;1.98;;;;;;;-144.47;80.16;52601.88;5041565;28;20078;-65
2023/07/18 02:54:41;;;;;;;5.00;2.20;;;;;;;-144.47;80.09;52570.09;5036086;28;20063;-67
2023/07/18 02:57:07;;;;;;;4.38;1.90;;;;;;;-144.47;80.17;52578.03;5035296;28;20468;-66
2023/07/18 02:59:32;;;;;;;4.85;1.67;;;;;;;-144.47;80.17;52548.25;5039949;28;20029;-65
2023/07/18 03:01:58;;;;;;;6.63;2.50;;;;;;;-144.47;80.19;52585.97;5041636;28;20479;-64
2023/07/18 03:04:25;;;;;;;7.18;2.05;;;;;;;-144.47;80.41;52568.13;5035349;28;20032;-67
2023/07/18 03:06:51;;;;;;;5.03;1.77;;;;;;;-144.47;81.08;52589.97;5033601;28;20048;-67
2023/07/18 03:09:20;;;;;;;10.98;2.22;;;;;;;-144.47;80.91;52595.91;5049453;22;20076;-60
2023/07/18 03:11:45;;;;;;;;;;;;;;;-144.47;81.10;52597.91;5030258;28;20021;-58
2023/07/18 03:14:11;;;;;;;9.57;2.60;;;;;;;-144.47;81.04;52593.94;5028845;28;20282;-64
2023/07/18 03:16:39;;;;;;;7.85;2.20;;;;;;;-144.47;81.51;52570.09;5029545;28;20143;-64
2023/07/18 03:19:05;;;;;;;5.03;2.00;;;;;;;-144.47;81.30;52582.00;5028891;28;20033;-62
2023/07/18 03:21:31;;;;;;;5.90;2.03;;;;;;;-144.47;81.72;52585.97;5029174;28;20156;-64
2023/07/18 03:23:57;;;;;;;5.70;2.08;;;;;;;-144.47;81.82;52564.13;5029011;28;20104;-64
2023/07/18 03:26:23;;;;;;;6.03;2.20;;;;;;;-144.47;81.95;52591.94;5029868;28;20017;-67
2023/07/18 03:28:48;;;;;;;4.45;1.92;;;;;;;-144.47;81.96;52595.91;5029484;28;20403;-63
2023/07/18 03:31:13;;;;;;;5.35;1.90;;;;;;;-144.47;82.12;52578.03;5027315;28;20490;-64
2023/07/18 03:33:39;;;;;;;5.13;2.25;;;;;;;-144.47;82.06;52574.06;5025906;28;20248;-64
2023/07/18 03:36:05;;;;;;;8.35;2.15;;;;;;;-144.47;82.50;52576.06;5029979;28;20087;-59
2023/07/18 03:38:31;;;;;;;7.70;2.60;;;;;;;-144.47;82.52;52597.91;5028821;28;20381;-63
2023/07/18 03:40:57;;;;;;;8.45;2.15;;;;;;;-144.47;82.33;52578.03;5029323;28;20106;-57
2023/07/18 03:43:23;;;;;;;5.47;2.30;;;;;;;-144.47;81.82;52589.97;5028745;28;20057;-63
2023/07/18 03:45:49;;;;;;;6.13;2.25;;;;;;;-144.47;81.16;52589.97;5028910;28;20096;-64
2023/07/18 03:48:14;;;;;;;5.20;2.33;;;;;;;-144.47;80.83;52576.06;5029234;28;20260;-61
2023/07/18 03:50:39;;;;;;;9.05;2.20;;;;;;;-144.47;80.24;52562.16;5029316;28;20029;-65
2023/07/18 03:53:05;;;;;;;7.47;2.50;;;;;;;-144.47;80.06;52611.81;5028729;28;20017;-63
2023/07/18 03:55:30;;;;;;;6.85;1.83;;;;;;;-144.47;79.63;52576.06;5028858;28;20026;-64
2023/07/18 03:57:56;;;;;;;9.88;2.45;;;;;;;-144.47;79.09;52584.00;5029666;28;20099;-59
2023/07/18 04:00:22;;;;;;;5.03;2.15;;;;;;;-144.47;79.04;52585.97;5028375;28;20104;-63
2023/07/18 04:02:48;;;;;;;5.97;2.13;;;;;;;-144.47;78.63;52548.25;5028942;28;20030;-64
2023/07/18 04:05:16;;;;;;;8.48;2.80;;;;;;;-144.47;78.94;52570.09;5028370;28;20029;-59
2023/07/18 04:07:43;;;;;;;17.35;2.72;;;;;;;-144.47;78.80;52564.13;5027829;28;20030;-63
2023/07/18 04:10:11;;;;;;;5.88;2.38;;;;;;;-144.47;78.35;52570.09;5031239;28;20029;-63
2023/07/18 04:12:38;;;;;;;6.10;2.10;;;;;;;-144.47;77.68;52562.16;5032983;28;20029;-63
2023/07/18 04:15:03;;;;;;;7.60;1.70;;;;;;;-144.47;76.64;52585.97;5031370;28;20482;-64
2023/07/18 04:17:30;;;;;;;8.65;2.03;;;;;;;-144.47;76.83;52601.88;5031566;28;20040;-63
2023/07/18 04:19:59;;;;;;;5.90;1.88;;;;;;;-144.47;76.84;52556.19;5031994;28;20112;-65
2023/07/18 04:22:24;;;;;;;;;;;;;;;-144.47;76.60;52597.91;5032806;28;20021;-58
2023/07/18 04:24:49;;;;;;;3.58;1.80;;;;;;;-144.47;77.32;52595.91;5032572;28;19942;-63
2023/07/18 04:27:15;;;;;;;4.97;1.80;;;;;;;-144.47;76.80;52589.97;5032695;28;20032;-62
2023/07/18 04:29:40;;;;;;;10.00;2.05;;;;;;;-144.47;76.80;52564.13;5032484;28;20053;-61
2023/07/18 04:32:06;;;;;;;9.93;2.22;;;;;;;-144.47;76.81;52576.06;5028835;28;20126;-65
2023/07/18 04:34:31;;;;;;;4.80;1.63;;;;;;;-144.47;77.00;52578.03;5031253;28;20033;-66
2023/07/18 04:36:57;;;;;;;5.85;2.10;;;;;;;-144.47;77.48;52599.88;5031909;28;20545;-65
2023/07/18 04:39:22;;;;;;;5.07;2.03;;;;;;;-144.47;77.52;52599.88;5031948;28;20479;-64
2023/07/18 04:41:47;;;;;;;6.75;2.20;;;;;;;-144.47;77.90;52580.03;5032235;28;20036;-65
2023/07/18 04:44:13;;;;;;;10.77;2.42;;;;;;;-144.47;77.99;52562.16;5031062;28;20073;-63
2023/07/18 04:46:38;;;;;;;5.13;2.00;;;;;;;-144.47;78.22;52625.72;5032639;28;20033;-64
2023/07/18 04:49:04;;;;;;;5.35;2.10;;;;;;;-144.47;78.22;52587.97;5031475;28;20021;-60
2023/07/18 04:51:29;;;;;;;4.88;2.17;;;;;;;-144.47;78.41;52554.22;5032100;28;20049;-64
2023/07/18 04:53:55;;;;;;;6.00;2.20;;;;;;;-144.47;78.54;52580.03;5031555;28;20337;-65
2023/07/18 04:56:20;;;;;;;6.97;2.13;;;;;;;-144.47;78.29;52582.00;5031189;28;20057;-63
2023/07/18 04:58:46;;;;;;;4.57;2.15;;;;;;;-144.47;78.17;52566.13;5031848;28;20037;-62
2023/07/18 05:01:11;;;;;;;6.65;2.25;;;;;;;-144.47;78.31;52597.91;5032409;28;20072;-62
2023/07/18 05:03:38;;;;;;;4.43;1.85;;;;;;;-144.47;78.24;52580.03;5030830;28;20025;-65
2023/07/18 05:06:03;;;;;;;6.70;2.63;;;;;;;-144.47;78.03;52574.06;5031950;28;20025;-63
2023/07/18 05:08:29;;;;;;;5.70;2.47;;;;;;;-144.47;78.04;52597.91;5025841;28;20029;-62
2023/07/18 05:11:03;;;;;;;5.93;2.58;;;;;;;-144.47;77.71;52595.91;5030364;28;20363;-62
2023/07/18 05:13:28;;;;;;;6.72;2.25;;;;;;;-144.47;77.50;52582.00;5031337;28;20113;-63
2023/07/18 05:15:54;;;;;;;7.30;2.58;;;;;;;-144.47;77.07;52572.09;5031969;28;20108;-60
2023/07/18 05:18:19;;;;;;;4.03;2.10;;;;;;;-144.47;76.74;52576.06;5030695;28;20041;-63
2023/07/18 05:20:45;;;;;;;27.20;3.95;;;;;;;-144.47;76.50;52578.03;5030112;28;20112;-65
2023/07/18 05:23:10;;;;;;;14.50;2.92;;;;;;;-144.47;76.23;52568.13;5030606;28;20052;-63
2023/07/18 05:25:36;;;;;;;34.13;4.20;;;;;;;-144.47;76.01;52580.03;5030502;28;20079;-64
2023/07/18 05:28:02;;;;;;;6.57;2.83;;;;;;;-144.47;75.33;52538.31;5031346;28;20040;-66
2023/07/18 05:30:27;;;;;;;7.85;2.30;;;;;;;-144.47;75.12;52585.97;5030941;28;20018;-64
2023/07/18 05:32:53;;;;;;;7.28;2.15;;;;;;;-144.47;74.64;52546.25;5027005;28;20029;-61
2023/07/18 05:35:18;;;;;;;8.65;2.10;;;;;;;-144.47;74.58;52538.31;5029940;28;20025;-64
2023/07/18 05:37:44;;;;;;;7.28;2.22;;;;;;;-144.47;74.64;52568.13;5030458;28;20538;-64
2023/07/18 05:40:11;;;;;;;8.05;2.38;;;;;;;-144.47;74.07;52566.13;5031257;28;20531;-64
2023/07/18 05:42:37;;;;;;;8.30;2.92;;;;;;;-144.47;72.88;52554.22;5031059;28;20519;-61
2023/07/18 05:45:03;;;;;;;7.35;2.35;;;;;;;-144.47;72.93;52585.97;5029463;28;20509;-64
2023/07/18 05:47:29;;;;;;;6.03;2.00;;;;;;;-144.47;72.74;52546.25;5030949;28;20441;-64
2023/07/18 05:49:55;;;;;;;6.65;1.95;;;;;;;-144.47;71.46;52570.09;5030062;28;20021;-61
2023/07/18 05:52:20;;;;;;;6.78;2.38;;;;;;;-144.47;71.89;52572.09;5028709;28;20471;-64
2023/07/18 05:54:46;;;;;;;9.05;2.50;;;;;;;-144.47;70.14;52554.22;5029411;28;20025;-63
2023/07/18 05:57:11;;;;;;;6.75;2.30;;;;;;;-144.47;69.23;52548.25;5029656;28;20056;-62
2023/07/18 05:59:36;;;;;;;8.45;2.50;;;;;;;-144.47;69.70;52560.16;5028250;28;20132;-64
2023/07/18 06:02:05;;;;;;;5.78;2.67;;;;;;;-144.47;68.80;52564.13;5030165;28;20017;-65
2023/07/18 06:04:30;;;;;;;12.02;2.55;;;;;;;-144.47;68.59;52540.31;5029348;28;20021;-64
2023/07/18 06:06:55;;;;;;;10.07;1.92;;;;;;;-144.47;68.50;52552.22;5028737;28;20033;-63
2023/07/18 06:09:21;;;;;;;4.72;2.00;;;;;;;-144.47;67.54;52558.19;5026342;28;20288;-64
2023/07/18 06:11:47;;;;;;;5.97;2.28;;;;;;;-144.47;66.81;52558.19;5030624;28;20017;-63
2023/07/18 06:14:12;;;;;;;5.03;2.30;;;;;;;-144.47;66.42;52570.09;5029138;28;20035;-60
2023/07/18 06:16:38;;;;;;;7.05;2.13;;;;;;;-144.47;65.84;52546.25;5030137;28;20061;-63
2023/07/18 06:19:04;;;;;;;8.50;2.10;;;;;;;-144.47;65.97;52542.28;5028729;28;20025;-63
2023/07/18 06:21:29;;;;;;;5.55;2.35;;;;;;;-144.47;64.99;52560.16;5029995;28;20025;-64
2023/07/18 06:23:56;;;;;;;4.82;2.17;;;;;;;-144.47;64.59;52554.22;5029754;28;20025;-63
2023/07/18 06:26:24;;;;;;;5.95;2.22;;;;;;;-144.47;64.10;52560.16;5030376;28;20025;-64
2023/07/18 06:28:51;;;;;;;4.55;1.98;;;;;;;-144.47;64.46;52576.06;5029970;28;20435;-64
2023/07/18 06:31:16;;;;;;;4.95;1.88;;;;;;;-144.47;63.12;52572.09;5027552;28;20025;-64
2023/07/18 06:33:41;;;;;;;6.00;2.58;;;;;;;-144.47;63.48;52564.13;5027156;28;20486;-64
2023/07/18 06:36:07;;;;;;;5.68;2.45;;;;;;;-144.47;63.44;52584.00;5030140;28;20475;-66
2023/07/18 06:38:33;;;;;;;5.80;2.10;;;;;;;-144.47;62.21;52548.25;5029861;28;20033;-62
2023/07/18 06:40:58;;;;;;;4.88;1.83;;;;;;;-144.47;61.71;52542.28;5030457;28;20025;-64
2023/07/18 06:43:24;;;;;;;5.90;2.15;;;;;;;-144.47;61.46;52552.22;5029744;28;20025;-63
2023/07/18 06:45:50;;;;;;;4.15;1.92;;;;;;;-144.47;61.09;52562.16;5029799;28;20075;-65
2023/07/18 06:48:15;;;;;;;5.55;1.80;;;;;;;-144.47;61.06;52576.06;5030143;28;20452;-62
2023/07/18 06:50:49;;;;;;;7.65;2.63;;;;;;;-144.47;60.37;52582.00;5029038;28;20026;-62
2023/07/18 06:53:19;;;;;;;9.95;2.53;;;;;;;-144.47;60.42;52572.09;5029488;28;20097;-65
2023/07/18 06:55:46;;;;;;;6.25;2.33;;;;;;;-144.47;60.67;52558.19;5029157;28;20480;-64
2023/07/18 06:58:11;;;;;;;11.63;2.60;;;;;;;-144.47;59.64;52562.16;5029023;28;20441;-63
2023/07/18 07:00:38;;;;;;;9.60;2.38;;;;;;;-144.47;59.47;52566.13;5029217;28;20459;-65
2023/07/18 07:03:06;;;;;;;8.30;3.15;;;;;;;-144.47;59.87;52560.16;5029336;28;20073;-63
2023/07/18 07:05:38;;;;;;;10.48;2.50;;;;;;;-144.47;59.53;52580.03;5028979;28;20124;-64
2023/07/18 07:08:08;;;;;;;7.72;2.20;;;;;;;-144.47;58.94;52530.38;5028088;28;20035;-64
2023/07/18 07:10:35;;;;;;;5.70;2.10;;;;;;;-144.47;58.05;52558.19;5029083;28;20029;-64
2023/07/18 07:13:00;;;;;;;6.22;2.03;;;;;;;-144.47;57.79;52572.09;5029202;28;20033;-64
2023/07/18 07:15:25;;;;;;;9.70;2.75;;;;;;;-144.47;57.76;52556.19;5028635;28;20022;-64
2023/07/18 07:17:51;;;;;;;6.88;2.05;;;;;;;-144.47;57.83;52564.13;5029924;28;20052;-66
2023/07/18 07:20:19;;;;;;;10.88;2.45;;;;;;;-144.47;58.28;52572.09;5028746;28;20494;-64
2023/07/18 07:22:46;;;;;;;14.70;2.60;;;;;;;-144.47;58.00;52566.13;5029192;28;20056;-65
2023/07/18 07:25:14;;;;;;;8.65;2.40;;;;;;;-144.47;57.57;52568.13;5028542;28;20091;-64
2023/07/18 07:27:44;;;;;;;5.55;2.00;;;;;;;-144.47;56.79;52572.09;5028309;28;20116;-65
2023/07/18 07:30:10;;;;;;;5.63;2.10;;;;;;;-144.47;55.67;52582.00;5028807;28;20017;-62
2023/07/18 07:32:36;;;;;;;9.02;2.25;;;;;;;-144.47;55.74;52574.06;5025071;28;20416;-61
2023/07/18 07:35:02;;;;;;;7.75;2.55;;;;;;;-144.47;55.35;52593.94;5028721;28;20017;-64
2023/07/18 07:37:27;;;;;;;7.25;2.35;;;;;;;-144.47;54.73;52550.25;5028945;28;20048;-64
2023/07/18 07:39:53;;;;;;;14.35;2.55;;;;;;;-144.47;54.58;52554.22;5028769;28;20499;-64
2023/07/18 07:42:18;;;;;;;5.45;2.55;;;;;;;-144.47;54.40;52568.13;5029271;28;20025;-63
2023/07/18 07:44:45;;;;;;;15.65;2.08;;;;;;;-144.47;54.05;52558.19;5030034;28;20366;-65
2023/07/18 07:47:10;;;;;;;7.53;2.30;;;;;;;-144.47;53.56;52585.97;5033309;28;20535;-65
2023/07/18 07:49:36;;;;;;;8.15;2.40;;;;;;;-144.47;53.74;52556.19;5032968;28;20104;-60
2023/07/18 07:52:01;;;;;;;14.45;2.97;;;;;;;-144.47;53.82;52578.03;5033510;28;20104;-65
2023/07/18 07:54:26;;;;;;;8.88;2.53;;;;;;;-144.47;52.66;52560.16;5032530;28;20021;-65
2023/07/18 07:56:52;;;;;;;10.45;2.60;;;;;;;-144.47;51.87;52578.03;5033360;28;20029;-64
2023/07/18 07:59:18;;;;;;;6.65;2.15;;;;;;;-144.47;51.28;52568.13;5035172;28;20083;-64
2023/07/18 08:01:43;;;;;;;8.27;2.10;;;;;;;-144.47;50.56;52562.16;5036050;28;20426;-62
2023/07/18 08:04:09;;;;;;;8.65;2.25;;;;;;;-144.47;50.59;52585.97;5035021;28;20079;-65
2023/07/18 08:06:35;;;;;;;5.28;1.98;;;;;;;-144.47;50.45;52570.09;5033466;28;20233;-60
2023/07/18 08:09:02;;;;;;;6.05;2.55;;;;;;;-144.47;50.38;52560.16;5031201;28;20087;-65
2023/07/18 08:11:27;;;;;;;7.47;2.00;;;;;;;-144.47;50.28;52582.00;5036161;28;20017;-66
2023/07/18 08:13:53;;;;;;;5.90;1.80;;;;;;;-144.47;47.17;52530.38;5032753;28;20025;-64
2023/07/18 08:16:19;;;;;;;7.00;1.90;;;;;;;-144.47;47.27;52558.19;5033018;28;20037;-63
2023/07/18 08:18:44;;;;;;;6.93;1.92;;;;;;;-144.47;46.35;52558.19;5031983;28;20049;-64
2023/07/18 08:21:09;;;;;;;6.00;2.05;;;;;;;-144.47;46.72;52582.00;5033001;28;20087;-65
2023/07/18 08:23:35;;;;;;;8.88;2.08;;;;;;;-144.47;46.06;52532.38;5031497;28;20025;-60
2023/07/18 08:26:00;;;;;;;7.07;1.92;;;;;;;-144.47;46.26;52578.03;5032856;28;20021;-63
2023/07/18 08:28:26;;;;;;;6.63;1.80;;;;;;;-144.47;45.79;52582.00;5032124;28;20518;-63
2023/07/18 08:30:51;;;;;;;6.60;2.22;;;;;;;-144.47;46.33;52570.09;5032354;28;20291;-64
2023/07/18 08:33:19;;;;;;;5.53;1.90;;;;;;;-144.47;46.48;52566.13;5028177;28;20509;-62
2023/07/18 08:35:44;;;;;;;3.42;1.70;;;;;;;-144.47;46.45;52560.16;5031659;28;20483;-61
2023/07/18 08:38:10;;;;;;;4.75;1.63;;;;;;;-144.47;46.13;52576.06;5032250;28;20054;-64
2023/07/18 08:40:36;;;;;;;6.35;1.80;;;;;;;-144.47;45.27;52568.13;5032254;28;20029;-63
2023/07/18 08:43:02;;;;;;;4.68;1.60;;;;;;;-144.47;44.70;52560.16;5030508;28;20025;-64
2023/07/18 08:45:32;;;;;;;3.55;1.58;;;;;;;-144.47;44.91;52552.22;5031654;28;20032;-63
2023/07/18 08:47:57;;;;;;;3.97;1.70;;;;;;;-144.47;44.10;52566.13;5032287;28;20021;-61
2023/07/18 08:50:26;;;;;;;11.45;1.90;;;;;;;-144.47;44.11;52589.97;5031667;28;20522;-63
2023/07/18 08:52:51;;;;;;;2.63;1.50;;;;;;;-144.47;42.31;52574.06;5031684;28;20026;-65
2023/07/18 08:55:17;;;;;;;7.22;1.90;;;;;;;-144.47;42.87;52562.16;5030833;28;20029;-63
2023/07/18 08:57:42;;;;;;;7.47;1.70;;;;;;;-144.47;42.51;52562.16;5031325;28;20117;-64
2023/07/18 09:00:09;;;;;;;5.95;1.63;;;;;;;-144.47;42.11;52570.09;5030757;28;20131;-63
2023/07/18 09:02:35;;;;;;;4.00;1.60;;;;;;;-144.47;42.59;52546.25;5031377;28;20108;-62
2023/07/18 09:05:00;;;;;;;5.18;1.65;;;;;;;-144.47;42.85;52576.06;5030383;28;20025;-62
2023/07/18 09:07:28;;;;;;;10.07;2.63;;;;;;;-144.47;42.82;52585.97;5029594;28;20040;-65
2023/07/18 09:09:55;;;;;;;6.55;1.15;;;;;;;-144.47;40.31;52566.13;5050841;22;20045;-67
2023/07/18 09:12:20;;;;;;;3.72;1.20;;;;;;;-144.47;39.38;52574.06;5051096;28;20021;-65
2023/07/18 09:14:46;;;;;;;4.10;1.20;;;;;;;-144.47;39.13;52585.97;5050271;28;20038;-64
2023/07/18 09:17:11;;;;;;;5.68;1.67;;;;;;;-144.47;39.05;52582.00;5050968;28;20025;-67
2023/07/18 09:19:40;;;;;;;5.43;1.73;;;;;;;-144.47;39.63;52558.19;5051076;28;20056;-68
2023/07/18 09:22:10;;;;;;;4.70;1.50;;;;;;;-144.47;38.86;52558.19;5051086;28;20441;-68
2023/07/18 09:24:36;;;;;;;3.92;1.50;;;;;;;-144.47;38.40;52572.09;5050380;28;20489;-66
2023/07/18 09:27:07;;;;;;;7.07;1.38;;;;;;;-144.47;39.04;52560.16;5051046;28;20363;-68
2023/07/18 09:29:32;;;;;;;7.40;1.85;;;;;;;-144.47;39.21;52558.19;5049419;28;20033;-67
2023/07/18 09:31:58;;;;;;;4.88;1.67;;;;;;;-144.47;39.46;52556.19;5032734;28;20024;-65
2023/07/18 09:34:25;;;;;;;3.10;1.25;;;;;;;-144.47;39.29;52564.13;5037765;28;20029;-67
2023/07/18 09:36:58;;;;;;;4.75;1.60;;;;;;;-144.47;38.89;52578.03;5042677;28;20032;-69
2023/07/18 09:39:25;;;;;;;5.07;1.35;;;;;;;-144.47;38.83;52580.03;5044869;28;20021;-68
2023/07/18 09:41:51;;;;;;;4.32;1.50;;;;;;;-144.47;38.38;52558.19;5031377;28;20559;-66
2023/07/18 09:44:18;;;;;;;3.97;1.67;;;;;;;-144.47;38.61;52558.19;5030102;28;20033;-68
2023/07/18 09:46:44;;;;;;;3.78;1.40;;;;;;;-144.47;38.68;52584.00;5029739;28;20026;-68
2023/07/18 09:49:10;;;;;;;5.45;1.58;;;;;;;-144.47;37.55;52564.13;5028933;28;20022;-65
2023/07/18 09:51:38;;;;;;;5.40;1.95;;;;;;;-144.47;37.02;52564.13;5030634;28;20387;-67
2023/07/18 09:54:05;;;;;;;9.40;1.67;;;;;;;-144.47;37.26;52566.13;5030209;28;20097;-64
2023/07/18 09:56:39;;;;;;;5.70;1.52;;;;;;;-144.47;37.45;52568.13;5030945;28;20033;-68
2023/07/18 09:59:07;;;;;;;5.70;1.75;;;;;;;-144.47;37.50;52568.13;5028912;28;20093;-66
2023/07/18 10:01:32;;;;;;;8.05;1.75;;;;;;;-144.47;36.62;52574.06;5031470;28;20080;-67
2023/07/18 10:03:58;;;;;;;2.75;1.33;;;;;;;-144.47;36.34;52568.13;5029699;28;20025;-67
2023/07/18 10:06:24;;;;;;;6.25;1.33;;;;;;;-144.47;35.95;52574.06;5028991;28;20040;-67
2023/07/18 10:08:50;;;;;;;7.53;1.48;;;;;;;-144.47;36.99;52584.00;5028446;28;20018;-67
2023/07/18 10:11:16;;;;;;;4.32;1.30;;;;;;;-144.47;36.46;52582.00;5029208;28;20045;-68
2023/07/18 10:13:54;;;;;;;3.90;1.27;;;;;;;-144.47;36.60;52560.16;5029196;28;20036;-66
2023/07/18 10:16:20;;;;;;;3.42;1.40;;;;;;;-144.47;36.97;52576.06;5030569;28;20039;-69
2023/07/18 10:18:47;;;;;;;4.43;1.50;;;;;;;-144.47;36.78;52607.84;5029844;28;20030;-64
2023/07/18 10:21:28;;;;;;;6.97;1.88;;;;;;;-144.47;37.06;52578.03;5030044;28;20079;-65
2023/07/18 10:23:54;;;;;;;7.00;1.67;;;;;;;-144.47;36.95;52595.91;5029868;28;20395;-64
2023/07/18 10:26:32;;;;;;;9.18;1.95;;;;;;;-144.47;36.68;52599.88;5030161;28;20448;-68
2023/07/18 10:29:02;;;;;;;5.47;1.40;;;;;;;-144.47;36.25;52589.97;5029542;28;20025;-64
2023/07/18 10:31:38;;;;;;;7.30;1.55;;;;;;;-144.47;35.05;52560.16;5026058;28;20455;-68
2023/07/18 10:34:18;;;;;;;5.57;1.17;;;;;;;-144.47;35.23;52578.03;5035126;28;20025;-68
2023/07/18 10:36:54;;;;;;;6.18;1.60;;;;;;;-144.47;34.78;52554.22;5024031;28;20497;-63
2023/07/18 10:39:34;;;;;;;4.60;2.38;;;;;;;-144.47;34.71;52595.91;5044328;28;20029;-67
2023/07/18 10:42:05;;;;;;;5.10;1.42;;;;;;;-144.47;34.96;52595.91;5040131;28;20102;-67
2023/07/18 10:44:30;;;;;;;5.55;1.48;;;;;;;-144.47;34.82;52585.97;5035368;28;20025;-69
2023/07/18 10:46:56;;;;;;;2.88;1.20;;;;;;;-144.47;34.71;52597.91;5039050;28;20032;-67
2023/07/18 10:49:29;;;;;;;3.97;1.40;;;;;;;-144.47;34.27;52589.97;5042740;28;20031;-67
2023/07/18 10:51:54;;;;;;;3.97;1.40;;;;;;;-144.47;34.36;52597.91;5041489;28;20017;-65
2023/07/18 10:54:20;;;;;;;6.60;1.73;;;;;;;-144.47;33.94;52572.09;5035501;28;20031;-67
2023/07/18 10:56:48;;;;;;;7.00;1.55;;;;;;;-144.47;34.16;52605.84;5037719;28;20021;-66
2023/07/18 10:59:14;;;;;;;5.93;1.35;;;;;;;-144.47;34.11;52578.03;5042054;28;20143;-64
2023/07/18 11:01:39;;;;;;;12.15;1.52;;;;;;;-144.47;34.37;52585.97;5041532;28;20067;-68
2023/07/18 11:04:07;;;;;;;6.15;1.52;;;;;;;-144.47;34.21;52597.91;5034609;28;20181;-66
2023/07/18 11:06:33;;;;;;;2.85;1.20;;;;;;;-144.47;34.44;52603.84;5035473;28;20064;-67
2023/07/18 11:08:58;;;;;;;5.78;1.42;;;;;;;-144.47;34.45;52591.94;5034545;28;20554;-63
2023/07/18 11:11:24;;;;;;;3.63;1.60;;;;;;;-144.47;34.56;52613.78;5033811;28;20108;-64
2023/07/18 11:13:49;;;;;;;6.05;1.73;;;;;;;-144.47;34.29;52597.91;5041802;28;20056;-67